Time;durP1;ratioP1;P1;durP2;ratioP2;P2;SDS_P1;SDS_P2;PMS_P1;PMS_P2;Temp;Humidity;BMP_temperature;BMP_pressure;BME280_temperature;BME280_humidity;BME280_pressure;Samples;Min_cycle;Max_cycle;Signal;HPM_P1;HPM_P2
2024/04/01 00:02:20;;;;;;;;;;;12.20;1.00;;;;;;5045311;28;19951;-78
2024/04/01 00:04:48;;;;;;;;;;;12.30;1.00;;;;;;5060604;28;20663;-78
2024/04/01 00:07:36;;;;;;;;;;;12.30;1.00;;;;;;5054810;28;19970;-77
2024/04/01 00:10:30;;;;;;;;;;;12.40;1.00;;;;;;5054163;28;19920;-77
2024/04/01 00:13:24;;;;;;;;;;;12.50;1.00;;;;;;5047039;28;19912;-77
2024/04/01 00:16:00;;;;;;;;;;;12.60;1.00;;;;;;5053192;28;19917;-78
2024/04/01 00:18:30;;;;;;;;;;;12.60;1.00;;;;;;5054516;28;19996;-77
2024/04/01 00:20:56;;;;;;;;;;;12.60;1.00;;;;;;5057157;28;19959;-77
2024/04/01 00:23:43;;;;;;;;;;;12.70;1.00;;;;;;5054197;28;20544;-77
2024/04/01 00:26:12;;;;;;;;;;;12.50;1.00;;;;;;5036010;28;20345;-76
2024/04/01 00:28:42;;;;;;;;;;;12.50;1.00;;;;;;5053877;28;19917;-76
2024/04/01 00:31:12;;;;;;;;;;;12.50;1.00;;;;;;5056859;28;19916;-76
2024/04/01 00:33:38;;;;;;;;;;;12.60;1.00;;;;;;5065285;28;19916;-76
2024/04/01 00:36:03;;;;;;;;;;;12.70;1.00;;;;;;5054902;28;19913;-77
2024/04/01 00:38:29;;;;;;;;;;;12.70;1.00;;;;;;5053397;28;19919;-77
2024/04/01 00:41:00;;;;;;;;;;;12.70;1.00;;;;;;5055120;28;19912;-76
2024/04/01 00:43:26;;;;;;;;;;;12.70;1.00;;;;;;5058361;28;19963;-77
2024/04/01 00:46:00;;;;;;;;;;;12.80;1.00;;;;;;5054041;28;19913;-77
2024/04/01 00:48:30;;;;;;;;;;;12.80;1.00;;;;;;5053729;28;19956;-76
2024/04/01 00:51:24;;;;;;;;;;;12.50;1.00;;;;;;5054198;28;19964;-77
2024/04/01 00:53:50;;;;;;;;;;;12.50;1.00;;;;;;5055719;28;19951;-77
2024/04/01 00:56:17;;;;;;;;;;;12.60;1.00;;;;;;5073354;28;19912;-78
2024/04/01 00:58:52;;;;;;;;;;;12.60;1.00;;;;;;5057352;28;19964;-78
2024/04/01 01:01:31;;;;;;;;;;;12.60;1.00;;;;;;5042518;28;20301;-78
2024/04/01 01:04:02;;;;;;;;;;;12.60;1.00;;;;;;5048032;28;20287;-78
2024/04/01 01:06:30;;;;;;;;;;;12.60;1.00;;;;;;5053362;28;19917;-78
2024/04/01 01:09:12;;;;;;;;;;;12.60;1.00;;;;;;5056841;28;19912;-78
2024/04/01 01:18:00;;;;;;;;;;;12.50;1.00;;;;;;5041636;28;19966;-78
2024/04/01 01:20:26;;;;;;;;;;;12.40;1.00;;;;;;5053495;28;19916;-78
2024/04/01 01:23:00;;;;;;;;;;;12.40;1.00;;;;;;5059480;28;19913;-79
2024/04/01 01:25:30;;;;;;;;;;;12.40;1.00;;;;;;5043671;28;19916;-78
2024/04/01 01:28:00;;;;;;;;;;;12.40;1.00;;;;;;5041005;28;19916;-78
2024/04/01 01:30:30;;;;;;;;;;;12.30;1.00;;;;;;5061360;28;19909;-78
2024/04/01 01:33:01;;;;;;;;;;;12.30;1.00;;;;;;5045636;28;19952;-78
2024/04/01 01:35:31;;;;;;;;;;;12.30;1.00;;;;;;5050695;28;19909;-78
2024/04/01 01:38:00;;;;;;;;;;;12.30;1.00;;;;;;5060544;28;19940;-78
2024/04/01 01:41:00;;;;;;;;;;;12.30;1.00;;;;;;5060251;28;20016;-78
2024/04/01 01:43:48;;;;;;;;;;;12.30;1.00;;;;;;5053542;28;19913;-78
2024/04/01 01:46:32;;;;;;;;;;;12.30;1.00;;;;;;5060342;28;19917;-78
2024/04/01 01:48:58;;;;;;;;;;;12.30;1.00;;;;;;5064948;28;19950;-78
2024/04/01 01:51:31;;;;;;;;;;;12.30;1.00;;;;;;5061354;28;20127;-77
2024/04/01 01:54:00;;;;;;;;;;;12.20;1.00;;;;;;5077264;28;19912;-78
2024/04/01 01:56:30;;;;;;;;;;;12.20;1.00;;;;;;5060026;28;19927;-78
2024/04/01 01:59:30;;;;;;;;;;;12.20;1.00;;;;;;5059921;28;20003;-78
2024/04/01 02:02:00;;;;;;;;;;;12.20;1.00;;;;;;5069879;28;20004;-78
2024/04/01 02:04:26;;;;;;;;;;;12.10;1.00;;;;;;5068271;28;19952;-78
2024/04/01 02:06:51;;;;;;;;;;;12.00;1.00;;;;;;5065098;28;20050;-76
2024/04/01 02:09:31;;;;;;;;;;;11.90;1.00;;;;;;5070976;28;19916;-76
2024/04/01 02:11:57;;;;;;;;;;;12.00;1.00;;;;;;5059180;28;19913;-77
2024/04/01 02:14:23;;;;;;;;;;;12.00;1.00;;;;;;5059136;28;19961;-76
2024/04/01 02:16:48;;;;;;;;;;;12.00;1.00;;;;;;5059528;28;19917;-76
2024/04/01 02:19:19;;;;;;;;;;;12.00;1.00;;;;;;5049437;28;19970;-76
2024/04/01 02:21:47;;;;;;;;;;;12.00;1.00;;;;;;5053232;28;19982;-76
2024/04/01 02:24:17;;;;;;;;;;;12.00;1.00;;;;;;5080083;28;19915;-76
2024/04/01 02:27:00;;;;;;;;;;;11.90;1.00;;;;;;5061356;28;19908;-76
2024/04/01 02:29:30;;;;;;;;;;;11.70;1.00;;;;;;5059570;28;19956;-76
2024/04/01 02:31:56;;;;;;;;;;;11.70;1.00;;;;;;5059533;28;20821;-76
2024/04/01 02:34:22;;;;;;;;;;;11.80;1.00;;;;;;5043511;28;19915;-76
2024/04/01 02:36:48;;;;;;;;;;;11.70;1.00;;;;;;5059206;28;19916;-76
2024/04/01 02:39:30;;;;;;;;;;;11.70;1.00;;;;;;5047765;28;19917;-76
2024/04/01 02:42:00;;;;;;;;;;;11.60;1.00;;;;;;5058192;28;19979;-76
2024/04/01 02:44:26;;;;;;;;;;;11.60;1.00;;;;;;5055574;28;19913;-77
2024/04/01 02:46:54;;;;;;;;;;;11.60;1.00;;;;;;5057603;28;19913;-76
2024/04/01 02:49:24;;;;;;;;;;;11.60;1.00;;;;;;5074616;28;19913;-77
2024/04/01 02:52:06;;;;;;;;;;;11.60;1.00;;;;;;5047072;28;19920;-76
2024/04/01 02:54:32;;;;;;;;;;;11.60;1.00;;;;;;5060582;28;19927;-76
2024/04/01 02:56:58;;;;;;;;;;;11.70;1.00;;;;;;5070742;28;19917;-76
2024/04/01 02:59:25;;;;;;;;;;;11.70;1.00;;;;;;5055282;28;19919;-76
2024/04/01 03:02:08;;;;;;;;;;;11.60;1.00;;;;;;5056249;28;19912;-77
2024/04/01 03:05:01;;;;;;;;;;;11.60;1.00;;;;;;5055371;28;19917;-76
2024/04/01 03:22:42;;;;;;;;;;;11.50;1.00;;;;;;5055331;28;20375;-78
2024/04/01 03:28:30;;;;;;;;;;;11.40;1.00;;;;;;5044352;28;19920;-78
2024/04/01 03:31:04;;;;;;;;;;;11.50;1.00;;;;;;5048832;28;19909;-77
2024/04/01 03:33:30;;;;;;;;;;;11.50;1.00;;;;;;5057901;28;20495;-78
2024/04/01 03:35:56;;;;;;;;;;;11.50;1.00;;;;;;5073212;28;19962;-78
2024/04/01 03:38:22;;;;;;;;;;;11.50;1.20;;;;;;5068689;28;19941;-76
2024/04/01 03:40:48;;;;;;;;;;;11.50;1.00;;;;;;5053807;28;20007;-76
2024/04/01 03:43:14;;;;;;;;;;;11.60;1.00;;;;;;5053019;28;20368;-76
2024/04/01 03:45:42;;;;;;;;;;;11.60;1.00;;;;;;5059021;28;19919;-76
2024/04/01 03:48:34;;;;;;;;;;;11.50;2.10;;;;;;5052960;28;19916;-76
2024/04/01 03:51:01;;;;;;;;;;;11.60;1.00;;;;;;5055838;28;19920;-77
2024/04/01 03:53:30;;;;;;;;;;;11.60;2.40;;;;;;5052175;28;19916;-76
2024/04/01 03:55:56;;;;;;;;;;;11.60;5.10;;;;;;5056715;28;20003;-76
2024/04/01 03:58:30;;;;;;;;;;;11.60;3.10;;;;;;5054578;28;20063;-77
2024/04/01 04:01:24;;;;;;;;;;;11.60;6.20;;;;;;5041199;28;19912;-76
2024/04/01 04:03:50;;;;;;;;;;;11.60;3.40;;;;;;5054120;28;19939;-76
2024/04/01 04:06:16;;;;;;;;;;;11.60;7.20;;;;;;5057602;28;20368;-76
2024/04/01 04:08:48;;;;;;;;;;;11.70;4.60;;;;;;5056783;28;20311;-77
2024/04/01 04:11:15;;;;;;;;;;;11.70;3.80;;;;;;5042100;28;20244;-76
2024/04/01 04:14:05;;;;;;;;;;;11.70;6.50;;;;;;5053479;28;20011;-76
2024/04/01 04:16:54;;;;;;;;;;;11.80;5.40;;;;;;5047460;28;19912;-76
2024/04/01 04:22:23;;;;;;;;;;;11.70;1.00;;;;;;5059674;28;19935;-77
2024/04/01 04:25:06;;;;;;;;;;;11.70;2.60;;;;;;5057890;28;20368;-76
2024/04/01 04:27:42;;;;;;;;;;;11.70;1.00;;;;;;5060657;28;19978;-78
2024/04/01 04:30:42;;;;;;;;;;;11.60;5.10;;;;;;5066045;28;19913;-78
2024/04/01 04:33:12;;;;;;;;;;;11.60;1.40;;;;;;5034839;28;19967;-78
2024/04/01 04:38:42;;;;;;;;;;;11.70;2.80;;;;;;5047607;28;20463;-78
2024/04/01 04:41:09;;;;;;;;;;;11.70;5.60;;;;;;5060042;28;19956;-77
2024/04/01 04:43:34;;;;;;;;;;;11.60;6.10;;;;;;5053825;28;20698;-77
2024/04/01 04:46:06;;;;;;;;;;;11.70;6.70;;;;;;5063451;28;19919;-76
2024/04/01 04:48:36;;;;;;;;;;;11.50;7.00;;;;;;5053937;28;19955;-76
2024/04/01 04:51:07;;;;;;;;;;;11.60;7.50;;;;;;5053511;28;19920;-76
2024/04/01 04:53:54;;;;;;;;;;;11.50;11.90;;;;;;5043605;28;19916;-76
2024/04/01 04:56:54;;;;;;;;;;;11.20;17.80;;;;;;5055732;28;19912;-78
2024/04/01 05:02:54;;;;;;;;;;;11.40;23.30;;;;;;5065280;28;20353;-78
2024/04/01 05:05:31;;;;;;;;;;;11.40;22.20;;;;;;5061237;28;19928;-78
2024/04/01 05:08:18;;;;;;;;;;;11.50;18.90;;;;;;5053559;28;19909;-78
2024/04/01 05:10:56;;;;;;;;;;;11.40;22.50;;;;;;5044473;28;19921;-78
2024/04/01 05:13:54;;;;;;;;;;;11.50;19.20;;;;;;5054128;28;19951;-76
2024/04/01 05:16:30;;;;;;;;;;;11.50;21.50;;;;;;5058862;28;19913;-78
2024/04/01 05:19:12;;;;;;;;;;;11.40;13.70;;;;;;5053158;28;20008;-79
2024/04/01 05:21:38;;;;;;;;;;;11.30;18.00;;;;;;5051719;28;19917;-78
2024/04/01 05:27:12;;;;;;;;;;;11.20;30.90;;;;;;5052904;28;19920;-78
2024/04/01 05:29:38;;;;;;;;;;;11.30;32.00;;;;;;5042649;28;19917;-78
2024/04/01 05:32:07;;;;;;;;;;;11.10;38.60;;;;;;5042870;28;19927;-78
2024/04/01 05:34:39;;;;;;;;;;;11.10;43.00;;;;;;5039476;28;19913;-78
2024/04/01 05:37:30;;;;;;;;;;;11.00;39.60;;;;;;5059195;28;20010;-78
2024/04/01 05:43:18;;;;;;;;;;;11.10;42.90;;;;;;5050333;28;19932;-76
2024/04/01 05:45:44;;;;;;;;;;;11.10;42.80;;;;;;5064589;28;19913;-77
2024/04/01 05:48:12;;;;;;;;;;;11.10;42.90;;;;;;5059419;28;19909;-76
2024/04/01 05:53:30;;;;;;;;;;;11.10;39.60;;;;;;5044579;28;19909;-76
2024/04/01 05:56:24;;;;;;;;;;;11.10;43.10;;;;;;5060351;28;19919;-77
2024/04/01 05:59:00;;;;;;;;;;;11.20;39.70;;;;;;5052815;28;19913;-76
2024/04/01 06:01:26;;;;;;;;;;;11.20;43.00;;;;;;5052909;28;19909;-76
2024/04/01 06:03:51;;;;;;;;;;;11.30;43.10;;;;;;5054581;28;19940;-76
2024/04/01 06:06:24;;;;;;;;;;;11.40;39.90;;;;;;5054732;28;19916;-76
2024/04/01 06:08:54;;;;;;;;;;;11.40;43.20;;;;;;5049399;28;19909;-76
2024/04/01 06:14:36;;;;;;;;;;;11.50;43.30;;;;;;5056055;28;20020;-78
2024/04/01 06:17:12;;;;;;;;;;;11.60;47.30;;;;;;5032841;28;19972;-79
2024/04/01 06:22:41;;;;;;;;;;;11.70;43.40;;;;;;5057085;28;20010;-77
2024/04/01 06:28:09;;;;;;;;;;;11.70;35.50;;;;;;5053216;28;20028;-79
2024/04/01 06:33:55;;;;;;;;;;;11.60;43.30;;;;;;5050809;28;20330;-79
2024/04/01 06:36:32;;;;;;;;;;;11.70;33.80;;;;;;5058791;28;19912;-79
2024/04/01 06:38:58;;;;;;;;;;;11.50;40.00;;;;;;5035859;28;19921;-79
2024/04/01 06:41:24;;;;;;;;;;;11.50;43.20;;;;;;5057315;28;19959;-78
2024/04/01 06:43:49;;;;;;;;;;;11.30;43.00;;;;;;5054808;28;19970;-85
2024/04/01 06:46:15;;;;;;;;;;;11.20;39.70;;;;;;5055283;28;19963;-78
2024/04/01 06:48:41;;;;;;;;;;;11.30;43.20;;;;;;5055242;28;19909;-79
2024/04/01 06:51:24;;;;;;;;;;;11.30;43.00;;;;;;5056018;28;19912;-76
2024/04/01 06:53:50;;;;;;;;;;;11.30;39.80;;;;;;5041277;28;19914;-74
2024/04/01 06:56:16;;;;;;;;;;;11.30;43.10;;;;;;5066851;28;19916;-74
2024/04/01 06:58:43;;;;;;;;;;;11.40;39.90;;;;;;5051595;28;19967;-72
2024/04/01 07:01:09;;;;;;;;;;;11.40;43.20;;;;;;5055985;28;19919;-72
2024/04/01 07:03:34;;;;;;;;;;;11.30;39.80;;;;;;5053047;28;19913;-72
2024/04/01 07:06:00;;;;;;;;;;;11.30;43.10;;;;;;5052431;28;19913;-72
2024/04/01 07:08:26;;;;;;;;;;;11.20;39.70;;;;;;5042582;28;19909;-72
2024/04/01 07:10:52;;;;;;;;;;;11.20;39.70;;;;;;5057513;28;19913;-72
2024/04/01 07:13:18;;;;;;;;;;;11.20;43.30;;;;;;5055556;28;19978;-74
2024/04/01 07:15:44;;;;;;;;;;;11.20;39.70;;;;;;5055450;28;20063;-74
2024/04/01 07:18:10;;;;;;;;;;;11.20;43.10;;;;;;5055433;28;19978;-74
2024/04/01 07:20:35;;;;;;;;;;;11.20;43.10;;;;;;5045960;28;19993;-74
2024/04/01 07:23:06;;;;;;;;;;;11.20;39.70;;;;;;5046707;28;19909;-74
2024/04/01 07:25:32;;;;;;;;;;;11.20;43.10;;;;;;5057886;28;19920;-74
2024/04/01 07:27:58;;;;;;;;;;;11.10;39.60;;;;;;5063879;28;19917;-72
2024/04/01 07:33:30;;;;;;;;;;;10.90;42.80;;;;;;5054149;28;19920;-78
2024/04/01 07:42:24;;;;;;;;;;;11.00;49.10;;;;;;5056667;28;19920;-77
2024/04/01 07:45:07;;;;;;;;;;;11.00;53.90;;;;;;5051922;28;19913;-77
2024/04/01 07:48:06;;;;;;;;;;;11.00;57.40;;;;;;5037499;28;20377;-77
2024/04/01 07:53:42;;;;;;;;;;;11.20;43.00;;;;;;5047724;28;19962;-77
2024/04/01 07:56:20;;;;;;;;;;;11.40;39.90;;;;;;5034605;28;19959;-78
2024/04/01 08:08:18;;;;;;;;;;;11.40;39.90;;;;;;5034242;28;19964;-77
2024/04/01 08:11:18;;;;;;;;;;;11.40;43.30;;;;;;5057899;28;20051;-79
2024/04/01 08:13:48;;;;;;;;;;;11.40;39.70;;;;;;5056392;28;19961;-77
2024/04/01 08:19:18;;;;;;;;;;;11.50;35.00;;;;;;5057748;28;19928;-77
2024/04/01 08:21:49;;;;;;;;;;;11.40;39.70;;;;;;5060731;28;19920;-78
2024/04/01 08:24:48;;;;;;;;;;;11.60;43.30;;;;;;5041564;28;19909;-76
2024/04/01 08:27:24;;;;;;;;;;;11.70;25.40;;;;;;5044833;28;19917;-78
2024/04/01 08:29:54;;;;;;;;;;;11.60;24.80;;;;;;5044929;28;19916;-75
2024/04/01 08:32:24;;;;;;;;;;;11.40;17.40;;;;;;5064413;28;19919;-76
2024/04/01 08:35:00;;;;;;;;;;;11.40;18.60;;;;;;5070731;28;20008;-83
2024/04/01 08:37:26;;;;;;;;;;;11.40;19.80;;;;;;5051566;28;19916;-79
2024/04/01 08:39:55;;;;;;;;;;;11.40;23.00;;;;;;5056696;28;19919;-80
2024/04/01 08:42:26;;;;;;;;;;;11.50;29.90;;;;;;5065092;28;19916;-82
2024/04/01 08:44:52;;;;;;;;;;;11.70;19.20;;;;;;5050097;28;19979;-77
2024/04/01 08:47:42;;;;;;;;;;;11.80;19.80;;;;;;5048286;28;19916;-82
2024/04/01 08:50:21;;;;;;;;;;;11.80;8.00;;;;;;5057551;28;20011;-79
2024/04/01 08:52:52;;;;;;;;;;;11.80;5.30;;;;;;5048879;28;19913;-76
2024/04/01 08:55:25;;;;;;;;;;;11.80;1.00;;;;;;5039093;28;19910;-79
2024/04/01 08:58:19;;;;;;;;;;;11.70;1.00;;;;;;5042249;28;19923;-77
2024/04/01 09:00:44;;;;;;;;;;;11.60;1.00;;;;;;5047025;28;20012;-76
2024/04/01 09:03:12;;;;;;;;;;;11.50;1.00;;;;;;5056210;28;19999;-76
2024/04/01 09:05:57;;;;;;;;;;;11.40;1.00;;;;;;5053105;28;19925;-76
2024/04/01 09:08:23;;;;;;;;;;;11.40;1.00;;;;;;5053264;28;19943;-76
2024/04/01 09:11:18;;;;;;;;;;;11.50;1.00;;;;;;5053337;28;19916;-77
2024/04/01 09:13:49;;;;;;;;;;;11.30;1.00;;;;;;5047369;28;20007;-76
2024/04/01 09:16:21;;;;;;;;;;;11.30;1.00;;;;;;5053734;28;19994;-76
2024/04/01 09:18:48;;;;;;;;;;;11.40;1.00;;;;;;5053010;28;20367;-76
2024/04/01 09:21:13;;;;;;;;;;;11.30;1.00;;;;;;5053358;28;19909;-76
2024/04/01 09:23:42;;;;;;;;;;;11.40;1.00;;;;;;5053863;28;19912;-76
2024/04/01 09:26:13;;;;;;;;;;;11.40;1.00;;;;;;5053172;28;19950;-75
2024/04/01 09:28:43;;;;;;;;;;;11.30;1.00;;;;;;5053986;28;19913;-75
2024/04/01 09:31:13;;;;;;;;;;;11.30;1.00;;;;;;5053158;28;19917;-75
2024/04/01 09:33:43;;;;;;;;;;;11.30;1.00;;;;;;5056712;28;19955;-76
2024/04/01 09:36:10;;;;;;;;;;;11.50;1.00;;;;;;5039397;28;19916;-75
2024/04/01 09:38:37;;;;;;;;;;;11.40;1.00;;;;;;5057976;28;19913;-77
2024/04/01 09:41:25;;;;;;;;;;;11.50;1.00;;;;;;5034971;28;19913;-76
2024/04/01 09:46:55;;;;;;;;;;;11.40;1.00;;;;;;5052663;28;20387;-77
2024/04/01 09:49:21;;;;;;;;;;;11.60;1.00;;;;;;5038755;28;19913;-77
2024/04/01 09:51:47;;;;;;;;;;;11.80;1.00;;;;;;5050922;28;19910;-77
2024/04/01 09:54:19;;;;;;;;;;;11.90;1.00;;;;;;5070272;28;19909;-77
2024/04/01 09:57:12;;;;;;;;;;;11.80;1.00;;;;;;5043262;28;19924;-77
2024/04/01 09:59:44;;;;;;;;;;;11.90;1.00;;;;;;5057473;28;19975;-75
2024/04/01 10:02:30;;;;;;;;;;;12.00;1.00;;;;;;5055662;28;19939;-76
2024/04/01 10:05:11;;;;;;;;;;;12.10;1.00;;;;;;5056499;28;19916;-76
2024/04/01 10:07:40;;;;;;;;;;;12.10;1.00;;;;;;5056805;28;20000;-75
2024/04/01 10:10:30;;;;;;;;;;;12.30;1.00;;;;;;5065926;28;19913;-76
2024/04/01 10:13:19;;;;;;;;;;;12.20;1.00;;;;;;5054582;28;19920;-76
2024/04/01 10:15:54;;;;;;;;;;;12.40;1.00;;;;;;5046321;28;19912;-77
2024/04/01 10:18:25;;;;;;;;;;;12.40;1.00;;;;;;5048328;28;19921;-76
2024/04/01 10:20:54;;;;;;;;;;;12.40;1.00;;;;;;5063367;28;19913;-76
2024/04/01 10:23:39;;;;;;;;;;;12.70;1.00;;;;;;5046897;28;19919;-77
2024/04/01 10:26:25;;;;;;;;;;;12.70;1.00;;;;;;5056025;28;19909;-75
2024/04/01 10:28:53;;;;;;;;;;;12.70;1.00;;;;;;5056384;28;19951;-76
2024/04/01 10:34:54;;;;;;;;;;;12.50;1.00;;;;;;5069236;28;20007;-77
2024/04/01 10:40:55;;;;;;;;;;;12.30;1.00;;;;;;5048413;28;19967;-78
2024/04/01 10:43:55;;;;;;;;;;;12.40;1.00;;;;;;5042330;28;19914;-78
2024/04/01 10:49:36;;;;;;;;;;;12.40;1.00;;;;;;5048590;28;19963;-77
2024/04/01 10:55:25;;;;;;;;;;;12.30;1.00;;;;;;5058941;28;20372;-78
2024/04/01 10:57:55;;;;;;;;;;;12.30;1.00;;;;;;5044374;28;19913;-77
2024/04/01 11:00:29;;;;;;;;;;;12.30;1.00;;;;;;5042263;28;19914;-76
2024/04/01 11:03:01;;;;;;;;;;;12.30;1.00;;;;;;5049292;28;19909;-77
2024/04/01 11:05:42;;;;;;;;;;;12.30;1.00;;;;;;5051072;28;19917;-76
2024/04/01 11:08:31;;;;;;;;;;;12.30;1.00;;;;;;5048963;28;19909;-77
2024/04/01 11:11:03;;;;;;;;;;;12.50;1.00;;;;;;5053024;28;19916;-76
2024/04/01 11:13:48;;;;;;;;;;;12.50;1.00;;;;;;5061615;28;19916;-75
2024/04/01 11:16:20;;;;;;;;;;;12.40;1.00;;;;;;5043389;28;19913;-78
2024/04/01 11:19:05;;;;;;;;;;;12.40;1.00;;;;;;5055010;28;19917;-78
2024/04/01 11:21:57;;;;;;;;;;;12.90;1.00;;;;;;5047156;28;19912;-78
2024/04/01 11:24:35;;;;;;;;;;;12.90;1.00;;;;;;5040332;28;19916;-78
2024/04/01 11:27:04;;;;;;;;;;;13.40;1.00;;;;;;5045885;28;19995;-79
2024/04/01 11:29:48;;;;;;;;;;;13.50;1.00;;;;;;5053720;28;19912;-78
2024/04/01 11:41:25;;;;;;;;;;;13.90;1.00;;;;;;5044617;28;20383;-79
2024/04/01 11:47:01;;;;;;;;;;;13.80;1.00;;;;;;5053233;28;20017;-75
2024/04/01 11:49:38;;;;;;;;;;;13.60;1.00;;;;;;5056934;28;19919;-77
2024/04/01 11:52:27;;;;;;;;;;;13.90;1.00;;;;;;5042956;28;20007;-77
2024/04/01 11:55:07;;;;;;;;;;;14.30;1.00;;;;;;5041852;28;19909;-76
2024/04/01 11:57:37;;;;;;;;;;;14.60;1.00;;;;;;5042810;28;19940;-77
2024/04/01 12:00:24;;;;;;;;;;;14.70;1.00;;;;;;5038196;28;19920;-77
2024/04/01 12:03:12;;;;;;;;;;;13.90;1.00;;;;;;5054307;28;19913;-77
2024/04/01 12:05:55;;;;;;;;;;;13.80;1.00;;;;;;5045145;28;19928;-77
2024/04/01 12:08:22;;;;;;;;;;;13.30;1.00;;;;;;5043825;28;19916;-76
2024/04/01 12:10:49;;;;;;;;;;;13.30;1.00;;;;;;5040925;28;20361;-77
2024/04/01 12:13:36;;;;;;;;;;;13.30;1.00;;;;;;5052671;28;20347;-77
2024/04/01 12:19:08;;;;;;;;;;;13.10;1.00;;;;;;5049490;28;19924;-78
2024/04/01 12:24:37;;;;;;;;;;;12.60;1.00;;;;;;5053968;28;19970;-78
2024/04/01 12:27:14;;;;;;;;;;;12.30;1.00;;;;;;5060658;28;20484;-78
2024/04/01 12:30:01;;;;;;;;;;;12.30;1.00;;;;;;5042646;28;19909;-79
2024/04/01 12:32:27;;;;;;;;;;;12.20;1.00;;;;;;5042159;28;19912;-75
2024/04/01 12:35:19;;;;;;;;;;;12.00;1.00;;;;;;5041332;28;20365;-77
2024/04/01 12:37:55;;;;;;;;;;;11.80;1.00;;;;;;5060674;28;19921;-76
2024/04/01 12:40:43;;;;;;;;;;;11.80;1.00;;;;;;5055478;28;20055;-76
2024/04/01 12:43:19;;;;;;;;;;;11.70;1.00;;;;;;5063981;28;19917;-77
2024/04/01 12:48:48;;;;;;;;;;;11.40;1.00;;;;;;5047670;28;20054;-78
2024/04/01 12:51:25;;;;;;;;;;;11.40;1.00;;;;;;5062365;28;19975;-80
2024/04/01 12:53:57;;;;;;;;;;;11.30;1.00;;;;;;5047538;28;19909;-78
2024/04/01 12:59:37;;;;;;;;;;;11.40;1.00;;;;;;5055261;28;19924;-77
2024/04/01 13:05:19;;;;;;;;;;;11.20;1.00;;;;;;5043154;28;19924;-78
2024/04/01 13:10:55;;;;;;;;;;;10.80;1.00;;;;;;5043551;28;19924;-75
2024/04/01 13:13:40;;;;;;;;;;;10.90;1.00;;;;;;5033838;28;20399;-75
2024/04/01 13:16:27;;;;;;;;;;;10.90;1.00;;;;;;5064893;28;19912;-76
2024/04/01 13:18:56;;;;;;;;;;;10.70;1.00;;;;;;5070782;28;20276;-76
2024/04/01 13:21:43;;;;;;;;;;;10.60;1.00;;;;;;5047994;28;19935;-76
2024/04/01 13:24:10;;;;;;;;;;;10.60;1.00;;;;;;5055630;28;19954;-77
2024/04/01 13:26:43;;;;;;;;;;;10.50;1.00;;;;;;5055438;28;19909;-76
2024/04/01 13:29:10;;;;;;;;;;;10.60;1.00;;;;;;5041656;28;19960;-75
2024/04/01 13:32:09;;;;;;;;;;;10.60;1.00;;;;;;5058285;28;19913;-77
2024/04/01 13:34:43;;;;;;;;;;;10.70;1.00;;;;;;4948422;28;20301;-75
2024/04/01 13:37:19;;;;;;;;;;;10.80;1.00;;;;;;4956476;28;19997;-76
2024/04/01 13:39:56;;;;;;;;;;;10.90;1.00;;;;;;4950620;28;19918;-75
2024/04/01 13:42:30;;;;;;;;;;;11.30;1.00;;;;;;4942173;28;19915;-74
2024/04/01 13:45:07;;;;;;;;;;;11.30;1.00;;;;;;4955206;28;19914;-77
2024/04/01 13:47:55;;;;;;;;;;;11.50;1.00;;;;;;4952984;29;20364;-77
2024/04/01 13:50:23;;;;;;;;;;;11.50;1.00;;;;;;4952646;29;19914;-78
2024/04/01 13:53:01;;;;;;;;;;;11.60;1.00;;;;;;4952619;29;19926;-78
2024/04/01 13:55:46;;;;;;;;;;;11.50;1.00;;;;;;4954468;28;20009;-78
2024/04/01 13:58:25;;;;;;;;;;;11.60;1.00;;;;;;4952333;29;19915;-74
2024/04/01 14:01:01;;;;;;;;;;;11.70;1.00;;;;;;4952358;29;19961;-75
2024/04/01 14:03:53;;;;;;;;;;;11.70;1.00;;;;;;4952585;28;20012;-74
2024/04/01 14:06:48;;;;;;;;;;;11.70;1.00;;;;;;4949335;29;19925;-76
2024/04/01 14:09:27;;;;;;;;;;;11.50;1.00;;;;;;4963079;28;19958;-75
2024/04/01 14:12:02;;;;;;;;;;;11.30;1.00;;;;;;5047279;28;20272;-74
2024/04/01 14:14:35;;;;;;;;;;;11.30;1.00;;;;;;5039501;28;19919;-74
2024/04/01 14:17:19;;;;;;;;;;;11.50;1.00;;;;;;5048153;28;19917;-75
2024/04/01 14:19:58;;;;;;;;;;;11.60;1.00;;;;;;5053334;28;20384;-74
2024/04/01 14:22:37;;;;;;;;;;;11.40;1.00;;;;;;5049758;28;19913;-76
2024/04/01 14:25:13;;;;;;;;;;;11.30;1.00;;;;;;5058665;28;19928;-78
2024/04/01 14:27:49;;;;;;;;;;;11.40;1.00;;;;;;5051430;28;19988;-78
2024/04/01 14:30:19;;;;;;;;;;;11.50;1.00;;;;;;5055094;28;20043;-76
2024/04/01 14:32:44;;;;;;;;;;;11.70;1.00;;;;;;5056390;28;20003;-76
2024/04/01 14:38:17;;;;;;;;;;;12.10;1.00;;;;;;5052122;28;19919;-76
2024/04/01 14:40:44;;;;;;;;;;;12.20;1.00;;;;;;5067300;28;19912;-75
2024/04/01 14:43:10;;;;;;;;;;;12.40;1.00;;;;;;5066619;28;19917;-75
2024/04/01 14:45:38;;;;;;;;;;;12.50;1.00;;;;;;5053878;28;19920;-75
2024/04/01 14:48:05;;;;;;;;;;;12.60;1.00;;;;;;5041243;28;19912;-76
2024/04/01 14:50:49;;;;;;;;;;;12.50;1.00;;;;;;5059641;28;19920;-76
2024/04/01 14:53:26;;;;;;;;;;;12.30;1.00;;;;;;5054472;28;19935;-76
2024/04/01 14:56:13;;;;;;;;;;;12.30;1.00;;;;;;5046419;28;19948;-77
2024/04/01 14:58:43;;;;;;;;;;;12.10;1.00;;;;;;5048019;28;20051;-77
2024/04/01 15:01:25;;;;;;;;;;;12.10;1.00;;;;;;5054199;28;19995;-77
2024/04/01 15:03:55;;;;;;;;;;;11.90;1.00;;;;;;5059537;28;20367;-77
2024/04/01 15:06:23;;;;;;;;;;;11.90;1.00;;;;;;5065965;28;20295;-77
2024/04/01 15:08:50;;;;;;;;;;;11.70;1.00;;;;;;5065211;28;20371;-76
2024/04/01 15:11:15;;;;;;;;;;;11.70;1.00;;;;;;5061507;28;19912;-76
2024/04/01 15:13:43;;;;;;;;;;;11.70;1.00;;;;;;5047388;28;19913;-76
2024/04/01 15:16:14;;;;;;;;;;;11.50;1.00;;;;;;5067183;28;19966;-77
2024/04/01 15:18:41;;;;;;;;;;;11.60;1.00;;;;;;5042048;28;19923;-77
2024/04/01 15:27:12;;;;;;;;;;;11.60;1.00;;;;;;5054789;28;19920;-77
2024/04/01 15:29:56;;;;;;;;;;;11.60;1.00;;;;;;5064055;28;19916;-77
2024/04/01 15:32:22;;;;;;;;;;;11.70;1.00;;;;;;5038187;28;20491;-74
2024/04/01 15:34:47;;;;;;;;;;;11.60;1.00;;;;;;5058328;28;19959;-76
2024/04/01 15:37:37;;;;;;;;;;;11.90;1.00;;;;;;5054085;28;20383;-77
2024/04/01 15:40:09;;;;;;;;;;;12.10;1.00;;;;;;5060009;28;19958;-75
2024/04/01 15:42:37;;;;;;;;;;;12.20;1.00;;;;;;5065687;28;19912;-75
2024/04/01 15:45:07;;;;;;;;;;;12.20;1.00;;;;;;5056530;28;20341;-75
2024/04/01 15:47:33;;;;;;;;;;;12.10;1.00;;;;;;5054609;28;20266;-75
2024/04/01 15:50:25;;;;;;;;;;;13.70;1.00;;;;;;5064820;28;19924;-76
2024/04/01 15:52:50;;;;;;;;;;;12.40;1.00;;;;;;5054619;28;19963;-76
2024/04/01 15:55:25;;;;;;;;;;;12.50;1.00;;;;;;5069602;28;19912;-82
2024/04/01 15:58:07;;;;;;;;;;;12.70;1.00;;;;;;5057769;28;19948;-77
2024/04/01 16:00:43;;;;;;;;;;;12.90;1.00;;;;;;5053969;28;19917;-77
2024/04/01 16:03:16;;;;;;;;;;;12.90;1.00;;;;;;5058781;28;19938;-77
2024/04/01 16:05:41;;;;;;;;;;;13.20;1.00;;;;;;5056176;28;19916;-76
2024/04/01 16:08:13;;;;;;;;;;;13.60;1.00;;;;;;5058027;28;20004;-75
2024/04/01 16:10:39;;;;;;;;;;;13.60;1.00;;;;;;5052148;28;19924;-75
2024/04/01 16:13:05;;;;;;;;;;;13.90;1.00;;;;;;5054329;28;19913;-78
2024/04/01 16:15:34;;;;;;;;;;;14.30;1.00;;;;;;5047168;28;19913;-76
2024/04/01 16:18:02;;;;;;;;;;;15.00;1.00;;;;;;5045296;28;19925;-75
2024/04/01 16:20:29;;;;;;;;;;;16.00;1.00;;;;;;5050431;28;19958;-74
2024/04/01 16:22:56;;;;;;;;;;;16.00;1.00;;;;;;5054983;28;19913;-75
2024/04/01 16:25:26;;;;;;;;;;;16.30;1.00;;;;;;5058583;28;19916;-75
2024/04/01 16:28:19;;;;;;;;;;;16.30;1.00;;;;;;5060904;28;19919;-75
2024/04/01 16:30:53;;;;;;;;;;;17.70;1.00;;;;;;5054796;28;19920;-75
2024/04/01 16:33:19;;;;;;;;;;;19.80;1.00;;;;;;5055954;28;19917;-78
2024/04/01 16:35:45;;;;;;;;;;;19.80;1.00;;;;;;5068284;28;19913;-76
2024/04/01 16:38:11;;;;;;;;;;;19.50;1.00;;;;;;5047705;28;20418;-76
2024/04/01 16:40:37;;;;;;;;;;;18.90;1.00;;;;;;5055497;28;19966;-75
2024/04/01 16:43:06;;;;;;;;;;;18.00;1.00;;;;;;5058750;28;20288;-75
2024/04/01 16:45:37;;;;;;;;;;;17.00;1.00;;;;;;5055710;28;19909;-76
2024/04/01 16:48:14;;;;;;;;;;;16.70;1.00;;;;;;5055215;28;19913;-75
2024/04/01 16:50:40;;;;;;;;;;;15.40;1.00;;;;;;5054101;28;19959;-78
2024/04/01 16:53:33;;;;;;;;;;;14.70;1.00;;;;;;5052121;28;20368;-77
2024/04/01 16:55:59;;;;;;;;;;;14.40;1.00;;;;;;5053598;28;19912;-77
2024/04/01 16:58:37;;;;;;;;;;;14.40;1.00;;;;;;5053708;28;19963;-77
2024/04/01 17:04:19;;;;;;;;;;;13.80;1.00;;;;;;5056737;28;19948;-76
2024/04/01 17:06:49;;;;;;;;;;;13.10;1.00;;;;;;5043715;28;20372;-77
2024/04/01 17:09:29;;;;;;;;;;;12.90;1.00;;;;;;5069223;28;19954;-77
2024/04/01 17:12:02;;;;;;;;;;;12.70;1.00;;;;;;5060562;28;19913;-76
2024/04/01 17:14:29;;;;;;;;;;;12.60;1.00;;;;;;5048564;28;19964;-77
2024/04/01 17:17:01;;;;;;;;;;;12.50;1.00;;;;;;5047835;28;19967;-76
2024/04/01 17:19:44;;;;;;;;;;;12.20;1.00;;;;;;5043186;28;19919;-76
2024/04/01 17:22:14;;;;;;;;;;;12.10;1.00;;;;;;5042911;28;20438;-77
2024/04/01 17:24:43;;;;;;;;;;;11.90;1.00;;;;;;5055752;28;19924;-77
2024/04/01 17:27:25;;;;;;;;;;;11.70;1.00;;;;;;5053957;28;19916;-77